Time;durP1;ratioP1;P1;durP2;ratioP2;P2;SDS_P1;SDS_P2;PMS_P1;PMS_P2;Temp;Humidity;BMP_temperature;BMP_pressure;BME280_temperature;BME280_humidity;BME280_pressure;Samples;Min_cycle;Max_cycle;Signal;HPM_P1;HPM_P2
2023/02/19 10:03:50;;;;;;;;;2.33;2.33;;;;;;;;6096222;22;1452973;-58
2023/02/19 10:06:22;;;;;;;;;2.00;2.00;;;;;;;;6131721;23;46982;-73
2023/02/19 10:08:50;;;;;;;;;1.25;1.25;;;;;;;;6140323;23;46388;-72
2023/02/19 10:11:16;;;;;;;;;0.00;0.00;;;;;;;;6159942;23;45634;-72
2023/02/19 10:16:25;;;;;;;;;1.00;1.00;;;;;;;;6142695;23;45375;-72
2023/02/19 10:18:50;;;;;;;;;6.00;6.00;;;;;;;;6163724;23;45493;-57
2023/02/19 10:21:23;;;;;;;;;3.00;3.00;;;;;;;;6171836;23;45533;-57
2023/02/19 10:23:51;;;;;;;;;6.00;6.00;;;;;;;;6171537;23;45659;-57
2023/02/19 10:26:16;;;;;;;;;5.25;5.25;;;;;;;;6171660;23;45634;-57
2023/02/19 10:28:41;;;;;;;;;14.00;14.00;;;;;;;;6172236;23;47221;-56
2023/02/19 10:31:15;;;;;;;;;12.33;12.33;;;;;;;;6126601;23;45348;-58
2023/02/19 10:33:52;;;;;;;;;4.75;4.75;;;;;;;;6171931;23;45293;-57
2023/02/19 10:36:46;;;;;;;;;10.75;10.25;;;;;;;;6169298;23;45457;-56
2023/02/19 10:39:34;;;;;;;;;7.25;7.25;;;;;;;;6155866;23;46223;-57
2023/02/19 10:42:00;;;;;;;;;4.00;4.00;;;;;;;;6169216;23;45577;-57
2023/02/19 10:44:27;;;;;;;;;6.33;6.33;;;;;;;;6170926;23;45294;-57
2023/02/19 10:46:56;;;;;;;;;5.75;5.75;;;;;;;;6169483;23;45401;-57
2023/02/19 10:49:22;;;;;;;;;3.00;3.00;;;;;;;;6170644;23;45354;-57
2023/02/19 10:51:47;;;;;;;;;4.00;4.00;;;;;;;;6169775;23;45601;-57
2023/02/19 10:54:30;;;;;;;;;4.75;4.00;;;;;;;;6169092;23;45406;-57
2023/02/19 10:57:13;;;;;;;;;5.00;5.00;;;;;;;;6170372;23;45711;-58
2023/02/19 10:59:47;;;;;;;;;4.00;4.00;;;;;;;;6170347;23;45576;-57
2023/02/19 11:02:16;;;;;;;;;3.50;3.50;;;;;;;;6169372;23;45975;-57
2023/02/19 11:04:41;;;;;;;;;3.75;3.75;;;;;;;;6144707;23;45835;-57
2023/02/19 11:07:07;;;;;;;;;4.00;4.00;;;;;;;;6169630;23;45451;-60
2023/02/19 11:09:36;;;;;;;;;3.00;3.00;;;;;;;;6169211;23;47129;-59
2023/02/19 11:12:03;;;;;;;;;3.25;2.00;;;;;;;;6169184;23;45468;-59
2023/02/19 11:14:30;;;;;;;;;2.75;2.75;;;;;;;;6143983;23;45425;-58
2023/02/19 11:16:57;;;;;;;;;1.00;1.00;;;;;;;;6169195;23;45790;-58
2023/02/19 11:19:25;;;;;;;;;4.75;3.00;;;;;;;;6169815;23;45369;-58
2023/02/19 11:21:51;;;;;;;;;3.50;1.75;;;;;;;;6169118;23;45501;-58
2023/02/19 11:24:36;;;;;;;;;1.00;1.00;;;;;;;;6168654;23;45930;-58
2023/02/19 11:27:04;;;;;;;;;2.00;2.00;;;;;;;;6140615;23;45706;-58
2023/02/19 11:29:33;;;;;;;;;1.50;1.50;;;;;;;;6143271;23;46988;-58
2023/02/19 11:32:15;;;;;;;;;3.25;3.25;;;;;;;;6169060;23;45423;-58
2023/02/19 11:34:40;;;;;;;;;4.00;2.50;;;;;;;;6169141;23;45477;-58
2023/02/19 11:37:16;;;;;;;;;2.25;2.00;;;;;;;;6169853;23;45887;-58
2023/02/19 11:39:42;;;;;;;;;3.00;3.00;;;;;;;;6169807;23;46269;-58
2023/02/19 11:42:14;;;;;;;;;1.75;1.75;;;;;;;;6169654;23;45571;-59
2023/02/19 11:44:45;;;;;;;;;2.00;2.00;;;;;;;;6170067;23;45368;-58
2023/02/19 11:47:10;;;;;;;;;1.00;1.00;;;;;;;;6168838;23;45465;-58
2023/02/19 11:49:51;;;;;;;;;2.67;2.00;;;;;;;;6170498;23;45492;-58
2023/02/19 11:52:31;;;;;;;;;2.50;2.50;;;;;;;;6168579;23;45710;-58
2023/02/19 11:55:07;;;;;;;;;2.25;2.25;;;;;;;;6170278;23;45700;-59
2023/02/19 11:57:32;;;;;;;;;0.00;0.00;;;;;;;;6169582;23;45411;-58
2023/02/19 12:00:11;;;;;;;;;2.67;2.67;;;;;;;;6168869;23;46307;-59
2023/02/19 12:02:43;;;;;;;;;1.75;1.75;;;;;;;;6168484;23;45533;-58
2023/02/19 12:05:17;;;;;;;;;1.25;1.25;;;;;;;;6169755;23;45451;-58
2023/02/19 12:07:43;;;;;;;;;1.75;1.75;;;;;;;;6168253;23;45493;-58
2023/02/19 12:10:24;;;;;;;;;1.00;1.00;;;;;;;;6169564;23;45926;-58
2023/02/19 12:13:08;;;;;;;;;2.00;2.00;;;;;;;;6169204;23;45695;-58
2023/02/19 12:15:43;;;;;;;;;1.25;1.00;;;;;;;;6168739;23;45429;-58
2023/02/19 12:18:17;;;;;;;;;1.00;1.00;;;;;;;;6138373;23;45845;-58
2023/02/19 12:21:00;;;;;;;;;0.00;0.00;;;;;;;;6140342;23;47392;-58
2023/02/19 12:23:26;;;;;;;;;2.00;2.00;;;;;;;;6139061;23;45364;-59
2023/02/19 12:25:54;;;;;;;;;1.00;1.00;;;;;;;;6138844;23;45271;-58
2023/02/19 12:28:28;;;;;;;;;0.50;0.50;;;;;;;;6136762;23;45771;-58
2023/02/19 12:31:03;;;;;;;;;4.50;1.75;;;;;;;;6140620;23;45667;-58
2023/02/19 12:33:31;;;;;;;;;2.00;2.00;;;;;;;;6138607;23;45446;-58
2023/02/19 12:36:05;;;;;;;;;3.75;3.75;;;;;;;;6138966;23;45380;-58
2023/02/19 12:38:43;;;;;;;;;1.00;1.00;;;;;;;;6139002;23;45402;-58
2023/02/19 12:41:29;;;;;;;;;1.00;1.00;;;;;;;;6140357;23;47124;-59
2023/02/19 12:43:57;;;;;;;;;1.25;1.25;;;;;;;;6140133;23;45281;-58
2023/02/19 12:46:34;;;;;;;;;2.00;2.00;;;;;;;;6140388;23;45408;-59
2023/02/19 12:49:08;;;;;;;;;2.50;2.50;;;;;;;;6139302;23;45366;-59
2023/02/19 12:51:39;;;;;;;;;2.25;2.25;;;;;;;;6139323;23;46271;-59
2023/02/19 12:54:18;;;;;;;;;1.25;1.25;;;;;;;;6141422;23;45457;-59
2023/02/19 12:56:44;;;;;;;;;1.00;1.00;;;;;;;;6142277;23;45334;-58
2023/02/19 12:59:14;;;;;;;;;1.25;1.25;;;;;;;;6141436;23;45432;-58
2023/02/19 13:01:47;;;;;;;;;2.25;2.25;;;;;;;;6142717;23;46251;-58
2023/02/19 13:04:15;;;;;;;;;2.00;2.00;;;;;;;;6140817;23;45392;-58
2023/02/19 13:06:44;;;;;;;;;3.25;3.25;;;;;;;;6141795;23;45930;-58
2023/02/19 13:09:38;;;;;;;;;3.00;3.00;;;;;;;;6141005;23;45413;-58
2023/02/19 13:12:10;;;;;;;;;2.25;2.25;;;;;;;;6127749;23;46186;-58
2023/02/19 13:14:36;;;;;;;;;6.50;5.25;;;;;;;;6141962;23;45372;-58
2023/02/19 13:17:15;;;;;;;;;3.00;3.00;;;;;;;;6142148;23;45413;-58
2023/02/19 13:19:41;;;;;;;;;1.00;1.00;;;;;;;;6142891;23;45461;-58
2023/02/19 13:25:20;;;;;;;;;1.75;1.75;;;;;;;;6078885;23;45581;-58
2023/02/19 13:27:45;;;;;;;;;0.75;0.75;;;;;;;;6077939;23;45488;-58
